Hauptseite
METAR-TAF:

METAR-TAF

Flughäfen :

Flughafen Kunming-Changshui

Kunming, China

Breite: 25-01N, Länge: 102-41E, Höhe: 1892 m

Beobachtung

Neuester Wetterbericht von vor 31 Minuten, um 13:00 UTC
Wind 12 kt aus Nord/Nordost
Temperatur 9°C
Luftfeuchtigkeit 76%
Luftdruck 1021 hPa
Sichtweite: 8000 m
Aufgelockert bewölkt in der Höhe von 2600 ft

METAR: ZPPP 231300Z 02006MPS 8000 SCT026 09/05 Q1021 NOSIG

Zeit: 21:31 (13:31 UTC)

Prognose

Neuester Wetterbericht von vor 6 Stunden und 28 Minuten, um 07:03 UTC
Gültige Prognose vom 23 um 12 UTC bis 24 um 12 UTC
Wind 8 kt aus Nordost
Sichtweite 10 km oder mehr
Aufgelockert bewölkt in der Höhe von 2600 ft
Übergehend zu
vom 24 um 02 UTC bis 24 um 03 UTC
Wind 12 kt aus Südwest

TAF: ZPPP 230703Z 2312/2412 04004MPS 9999 SCT026 TX20/2408Z TN07/2323Z BECMG 2402/2403 22006MPS

Wetterbeobachtungen und Prognosen von mehr als 4000 Flughäfen (METAR und TAF Bericht).

Die verfügbaren Stationen werden durch gelbe und rote Markierungen auf der Karte dargestellt.

Führen Sie die Maus auf sie, um den Namen der Station zu sehen.

Darauf klicken, um die Beobachtung von Wetterbeobachtungen und Prognosen zu sehen.

Um die Karte zu ändern : klicken Sie auf den grünen Tasten mit einem schwarzen Kreuz Zum Vergrößern, auf den grünen Button mit einem Gedankenstrich zu verkleinern, oder auf die grünen Pfeile für benachbarte Karten.


METAR-TAF: